sensor_id;sensor_type;location;lat;lon;timestamp;P1;durP1;ratioP1;P2;durP2;ratioP2
82034;SDS011;71599;49.892;18.914;2023-07-22T00:01:26;4.95;;;4.55;;
82034;SDS011;71599;49.892;18.914;2023-07-22T00:06:29;6.35;;;5.15;;
82034;SDS011;71599;49.892;18.914;2023-07-22T00:11:30;7.10;;;5.35;;
82034;SDS011;71599;49.892;18.914;2023-07-22T00:16:31;6.53;;;5.22;;
82034;SDS011;71599;49.892;18.914;2023-07-22T00:21:33;5.85;;;5.07;;
82034;SDS011;71599;49.892;18.914;2023-07-22T00:26:34;7.40;;;5.63;;
82034;SDS011;71599;49.892;18.914;2023-07-22T00:31:35;6.15;;;5.55;;
82034;SDS011;71599;49.892;18.914;2023-07-22T00:36:37;6.45;;;5.13;;
82034;SDS011;71599;49.892;18.914;2023-07-22T00:41:38;7.75;;;6.28;;
82034;SDS011;71599;49.892;18.914;2023-07-22T00:46:39;8.00;;;5.68;;
82034;SDS011;71599;49.892;18.914;2023-07-22T00:51:41;6.35;;;5.40;;
82034;SDS011;71599;49.892;18.914;2023-07-22T00:56:43;9.93;;;6.07;;
82034;SDS011;71599;49.892;18.914;2023-07-22T01:01:44;5.70;;;4.88;;
82034;SDS011;71599;49.892;18.914;2023-07-22T01:06:47;6.60;;;5.70;;
82034;SDS011;71599;49.892;18.914;2023-07-22T01:11:50;7.93;;;6.43;;
82034;SDS011;71599;49.892;18.914;2023-07-22T01:16:50;7.15;;;5.38;;
82034;SDS011;71599;49.892;18.914;2023-07-22T01:21:53;6.50;;;5.90;;
82034;SDS011;71599;49.892;18.914;2023-07-22T01:26:56;7.93;;;4.60;;
82034;SDS011;71599;49.892;18.914;2023-07-22T01:31:57;6.20;;;5.20;;
82034;SDS011;71599;49.892;18.914;2023-07-22T01:41:22;5.55;;;4.35;;
82034;SDS011;71599;49.892;18.914;2023-07-22T01:46:23;5.68;;;4.95;;
82034;SDS011;71599;49.892;18.914;2023-07-22T01:51:24;7.95;;;6.28;;
82034;SDS011;71599;49.892;18.914;2023-07-22T01:56:26;7.32;;;4.43;;
82034;SDS011;71599;49.892;18.914;2023-07-22T02:01:27;6.88;;;4.45;;
82034;SDS011;71599;49.892;18.914;2023-07-22T02:06:28;4.05;;;3.33;;
82034;SDS011;71599;49.892;18.914;2023-07-22T02:11:30;4.20;;;3.47;;
82034;SDS011;71599;49.892;18.914;2023-07-22T02:16:31;5.97;;;4.80;;
82034;SDS011;71599;49.892;18.914;2023-07-22T02:21:32;5.95;;;4.55;;
82034;SDS011;71599;49.892;18.914;2023-07-22T02:26:35;5.50;;;4.28;;
82034;SDS011;71599;49.892;18.914;2023-07-22T02:31:36;7.28;;;4.65;;
82034;SDS011;71599;49.892;18.914;2023-07-22T02:36:37;8.63;;;4.53;;
82034;SDS011;71599;49.892;18.914;2023-07-22T02:41:39;6.63;;;5.72;;
82034;SDS011;71599;49.892;18.914;2023-07-22T02:46:40;10.10;;;5.43;;
82034;SDS011;71599;49.892;18.914;2023-07-22T02:51:41;7.60;;;4.72;;
82034;SDS011;71599;49.892;18.914;2023-07-22T02:56:44;8.23;;;4.85;;
82034;SDS011;71599;49.892;18.914;2023-07-22T03:01:45;9.82;;;5.82;;
82034;SDS011;71599;49.892;18.914;2023-07-22T03:06:46;8.02;;;4.85;;
82034;SDS011;71599;49.892;18.914;2023-07-22T03:11:48;15.45;;;5.80;;
82034;SDS011;71599;49.892;18.914;2023-07-22T03:16:49;8.82;;;5.75;;
82034;SDS011;71599;49.892;18.914;2023-07-22T03:21:50;13.02;;;7.13;;
82034;SDS011;71599;49.892;18.914;2023-07-22T03:26:53;8.38;;;6.38;;
82034;SDS011;71599;49.892;18.914;2023-07-22T03:31:54;9.38;;;5.72;;
82034;SDS011;71599;49.892;18.914;2023-07-22T03:36:55;9.50;;;6.00;;
82034;SDS011;71599;49.892;18.914;2023-07-22T03:41:57;9.32;;;5.50;;
82034;SDS011;71599;49.892;18.914;2023-07-22T03:46:59;7.40;;;5.43;;
82034;SDS011;71599;49.892;18.914;2023-07-22T03:52:00;7.85;;;4.65;;
82034;SDS011;71599;49.892;18.914;2023-07-22T03:57:03;11.23;;;5.88;;
82034;SDS011;71599;49.892;18.914;2023-07-22T04:02:04;10.25;;;4.38;;
82034;SDS011;71599;49.892;18.914;2023-07-22T04:07:05;9.43;;;4.53;;
82034;SDS011;71599;49.892;18.914;2023-07-22T04:12:08;8.88;;;4.72;;
82034;SDS011;71599;49.892;18.914;2023-07-22T04:17:09;6.85;;;4.38;;
82034;SDS011;71599;49.892;18.914;2023-07-22T04:22:10;6.50;;;3.92;;
82034;SDS011;71599;49.892;18.914;2023-07-22T04:27:12;6.93;;;4.50;;
82034;SDS011;71599;49.892;18.914;2023-07-22T04:32:13;7.50;;;4.15;;
82034;SDS011;71599;49.892;18.914;2023-07-22T04:37:14;6.82;;;4.43;;
82034;SDS011;71599;49.892;18.914;2023-07-22T04:42:17;9.98;;;4.55;;
82034;SDS011;71599;49.892;18.914;2023-07-22T04:47:18;7.28;;;4.00;;
82034;SDS011;71599;49.892;18.914;2023-07-22T04:52:18;5.47;;;4.40;;
82034;SDS011;71599;49.892;18.914;2023-07-22T04:57:21;5.97;;;4.00;;
82034;SDS011;71599;49.892;18.914;2023-07-22T05:02:22;5.57;;;4.22;;
82034;SDS011;71599;49.892;18.914;2023-07-22T05:07:23;6.68;;;4.20;;
82034;SDS011;71599;49.892;18.914;2023-07-22T05:12:26;6.47;;;4.05;;
82034;SDS011;71599;49.892;18.914;2023-07-22T05:17:27;8.07;;;4.93;;
82034;SDS011;71599;49.892;18.914;2023-07-22T05:22:27;5.22;;;3.45;;
82034;SDS011;71599;49.892;18.914;2023-07-22T05:27:30;5.07;;;3.88;;
82034;SDS011;71599;49.892;18.914;2023-07-22T05:32:31;5.85;;;3.80;;
82034;SDS011;71599;49.892;18.914;2023-07-22T05:37:32;5.18;;;3.97;;
82034;SDS011;71599;49.892;18.914;2023-07-22T05:42:34;6.63;;;3.30;;
82034;SDS011;71599;49.892;18.914;2023-07-22T05:47:35;7.05;;;4.20;;
82034;SDS011;71599;49.892;18.914;2023-07-22T05:52:36;5.97;;;4.15;;
82034;SDS011;71599;49.892;18.914;2023-07-22T05:57:39;5.97;;;3.30;;
82034;SDS011;71599;49.892;18.914;2023-07-22T06:02:40;4.88;;;3.22;;
82034;SDS011;71599;49.892;18.914;2023-07-22T06:07:41;3.70;;;2.88;;
82034;SDS011;71599;49.892;18.914;2023-07-22T06:12:43;4.82;;;3.13;;
82034;SDS011;71599;49.892;18.914;2023-07-22T06:17:44;5.28;;;3.40;;
82034;SDS011;71599;49.892;18.914;2023-07-22T06:22:45;5.22;;;3.60;;
82034;SDS011;71599;49.892;18.914;2023-07-22T06:27:48;3.80;;;3.03;;
82034;SDS011;71599;49.892;18.914;2023-07-22T06:32:49;5.68;;;3.25;;
82034;SDS011;71599;49.892;18.914;2023-07-22T06:37:50;5.28;;;3.30;;
82034;SDS011;71599;49.892;18.914;2023-07-22T06:42:52;4.82;;;3.67;;
82034;SDS011;71599;49.892;18.914;2023-07-22T06:47:53;11.05;;;6.97;;
82034;SDS011;71599;49.892;18.914;2023-07-22T06:52:54;4.30;;;3.38;;
82034;SDS011;71599;49.892;18.914;2023-07-22T06:57:57;4.38;;;3.40;;
82034;SDS011;71599;49.892;18.914;2023-07-22T07:02:58;4.45;;;3.85;;
82034;SDS011;71599;49.892;18.914;2023-07-22T07:07:59;4.50;;;3.00;;
82034;SDS011;71599;49.892;18.914;2023-07-22T07:13:01;4.57;;;3.78;;
82034;SDS011;71599;49.892;18.914;2023-07-22T07:18:02;5.18;;;3.17;;
82034;SDS011;71599;49.892;18.914;2023-07-22T07:23:03;5.00;;;3.53;;
82034;SDS011;71599;49.892;18.914;2023-07-22T07:28:05;10.00;;;6.97;;
82034;SDS011;71599;49.892;18.914;2023-07-22T07:33:06;5.63;;;3.80;;
82034;SDS011;71599;49.892;18.914;2023-07-22T07:38:07;6.10;;;4.32;;
82034;SDS011;71599;49.892;18.914;2023-07-22T07:43:10;5.10;;;3.65;;
82034;SDS011;71599;49.892;18.914;2023-07-22T07:48:11;6.35;;;4.63;;
82034;SDS011;71599;49.892;18.914;2023-07-22T07:53:12;9.02;;;4.97;;
82034;SDS011;71599;49.892;18.914;2023-07-22T07:58:14;5.65;;;4.53;;
82034;SDS011;71599;49.892;18.914;2023-07-22T08:03:15;6.38;;;3.90;;
82034;SDS011;71599;49.892;18.914;2023-07-22T08:08:16;4.13;;;3.25;;
82034;SDS011;71599;49.892;18.914;2023-07-22T08:13:18;5.57;;;4.05;;
82034;SDS011;71599;49.892;18.914;2023-07-22T08:18:19;3.45;;;3.10;;
82034;SDS011;71599;49.892;18.914;2023-07-22T08:23:20;4.60;;;3.53;;
82034;SDS011;71599;49.892;18.914;2023-07-22T08:28:23;4.93;;;2.90;;
82034;SDS011;71599;49.892;18.914;2023-07-22T08:33:24;4.55;;;2.78;;
82034;SDS011;71599;49.892;18.914;2023-07-22T08:38:25;2.90;;;2.65;;
82034;SDS011;71599;49.892;18.914;2023-07-22T08:43:28;4.75;;;3.15;;
82034;SDS011;71599;49.892;18.914;2023-07-22T08:48:30;3.58;;;2.92;;
82034;SDS011;71599;49.892;18.914;2023-07-22T08:53:31;2.63;;;2.05;;
82034;SDS011;71599;49.892;18.914;2023-07-22T08:58:34;4.10;;;2.72;;
82034;SDS011;71599;49.892;18.914;2023-07-22T09:03:36;3.42;;;2.60;;
82034;SDS011;71599;49.892;18.914;2023-07-22T09:08:40;4.20;;;2.53;;
82034;SDS011;71599;49.892;18.914;2023-07-22T09:13:44;2.40;;;2.05;;
82034;SDS011;71599;49.892;18.914;2023-07-22T09:18:46;2.90;;;2.15;;
82034;SDS011;71599;49.892;18.914;2023-07-22T09:23:47;3.10;;;2.40;;
82034;SDS011;71599;49.892;18.914;2023-07-22T09:28:50;3.00;;;2.10;;
82034;SDS011;71599;49.892;18.914;2023-07-22T09:33:52;2.30;;;2.10;;
82034;SDS011;71599;49.892;18.914;2023-07-22T09:39:00;4.63;;;2.58;;
82034;SDS011;71599;49.892;18.914;2023-07-22T09:44:06;2.70;;;2.28;;
82034;SDS011;71599;49.892;18.914;2023-07-22T09:54:12;3.15;;;2.20;;
82034;SDS011;71599;49.892;18.914;2023-07-22T09:59:14;2.58;;;2.30;;
82034;SDS011;71599;49.892;18.914;2023-07-22T10:04:18;3.03;;;2.03;;
82034;SDS011;71599;49.892;18.914;2023-07-22T10:09:22;2.88;;;2.67;;
82034;SDS011;71599;49.892;18.914;2023-07-22T10:14:29;3.00;;;2.42;;
82034;SDS011;71599;49.892;18.914;2023-07-22T10:19:30;3.08;;;2.38;;
82034;SDS011;71599;49.892;18.914;2023-07-22T10:24:32;2.00;;;1.90;;
82034;SDS011;71599;49.892;18.914;2023-07-22T10:29:34;3.35;;;2.50;;
82034;SDS011;71599;49.892;18.914;2023-07-22T10:34:35;3.30;;;2.65;;
82034;SDS011;71599;49.892;18.914;2023-07-22T10:39:36;4.22;;;3.00;;
82034;SDS011;71599;49.892;18.914;2023-07-22T10:44:39;4.50;;;2.90;;
82034;SDS011;71599;49.892;18.914;2023-07-22T10:49:44;3.08;;;2.78;;
82034;SDS011;71599;49.892;18.914;2023-07-22T10:54:46;4.15;;;3.25;;
82034;SDS011;71599;49.892;18.914;2023-07-22T10:59:50;4.22;;;3.45;;
82034;SDS011;71599;49.892;18.914;2023-07-22T11:04:51;4.13;;;3.22;;
82034;SDS011;71599;49.892;18.914;2023-07-22T11:09:53;5.55;;;3.55;;
82034;SDS011;71599;49.892;18.914;2023-07-22T11:15:02;9.65;;;4.90;;
82034;SDS011;71599;49.892;18.914;2023-07-22T11:20:04;4.68;;;3.65;;
82034;SDS011;71599;49.892;18.914;2023-07-22T11:25:07;3.97;;;2.80;;
82034;SDS011;71599;49.892;18.914;2023-07-22T11:30:12;5.25;;;3.38;;
82034;SDS011;71599;49.892;18.914;2023-07-22T11:35:14;3.97;;;3.40;;
82034;SDS011;71599;49.892;18.914;2023-07-22T11:40:16;4.68;;;3.85;;
82034;SDS011;71599;49.892;18.914;2023-07-22T11:45:18;2.42;;;2.22;;
82034;SDS011;71599;49.892;18.914;2023-07-22T11:50:19;4.03;;;2.95;;
82034;SDS011;71599;49.892;18.914;2023-07-22T11:55:34;2.72;;;2.30;;
82034;SDS011;71599;49.892;18.914;2023-07-22T12:00:37;2.63;;;2.33;;
82034;SDS011;71599;49.892;18.914;2023-07-22T12:05:38;5.43;;;2.53;;
82034;SDS011;71599;49.892;18.914;2023-07-22T12:10:39;2.50;;;2.30;;
82034;SDS011;71599;49.892;18.914;2023-07-22T12:15:41;3.80;;;2.60;;
82034;SDS011;71599;49.892;18.914;2023-07-22T12:20:42;3.33;;;2.80;;
82034;SDS011;71599;49.892;18.914;2023-07-22T12:25:43;4.60;;;3.22;;
82034;SDS011;71599;49.892;18.914;2023-07-22T12:30:45;4.22;;;3.83;;
82034;SDS011;71599;49.892;18.914;2023-07-22T12:35:46;13.25;;;4.53;;
82034;SDS011;71599;49.892;18.914;2023-07-22T12:40:47;4.50;;;3.05;;
82034;SDS011;71599;49.892;18.914;2023-07-22T12:45:50;3.25;;;2.92;;
82034;SDS011;71599;49.892;18.914;2023-07-22T12:50:51;3.90;;;3.47;;
82034;SDS011;71599;49.892;18.914;2023-07-22T12:55:52;4.90;;;3.95;;
82034;SDS011;71599;49.892;18.914;2023-07-22T13:00:54;3.83;;;3.53;;
82034;SDS011;71599;49.892;18.914;2023-07-22T13:05:55;4.28;;;3.88;;
82034;SDS011;71599;49.892;18.914;2023-07-22T13:10:56;4.57;;;4.18;;
82034;SDS011;71599;49.892;18.914;2023-07-22T13:15:59;4.55;;;4.03;;
82034;SDS011;71599;49.892;18.914;2023-07-22T13:21:00;4.13;;;3.42;;
82034;SDS011;71599;49.892;18.914;2023-07-22T13:26:01;2.88;;;2.08;;
82034;SDS011;71599;49.892;18.914;2023-07-22T13:31:03;3.05;;;2.17;;
82034;SDS011;71599;49.892;18.914;2023-07-22T13:36:05;3.25;;;2.55;;
82034;SDS011;71599;49.892;18.914;2023-07-22T13:41:07;3.45;;;2.05;;
82034;SDS011;71599;49.892;18.914;2023-07-22T13:46:09;1.92;;;1.65;;
82034;SDS011;71599;49.892;18.914;2023-07-22T13:51:10;2.03;;;1.70;;
82034;SDS011;71599;49.892;18.914;2023-07-22T13:56:11;3.10;;;2.42;;
82034;SDS011;71599;49.892;18.914;2023-07-22T14:01:13;2.83;;;1.92;;
82034;SDS011;71599;49.892;18.914;2023-07-22T14:06:14;2.38;;;2.03;;
82034;SDS011;71599;49.892;18.914;2023-07-22T14:11:15;3.33;;;2.63;;
82034;SDS011;71599;49.892;18.914;2023-07-22T14:16:17;4.53;;;3.35;;
82034;SDS011;71599;49.892;18.914;2023-07-22T14:21:18;3.40;;;3.10;;
82034;SDS011;71599;49.892;18.914;2023-07-22T14:26:19;3.42;;;2.20;;
82034;SDS011;71599;49.892;18.914;2023-07-22T14:31:22;4.57;;;2.53;;
82034;SDS011;71599;49.892;18.914;2023-07-22T14:36:23;3.40;;;2.35;;
82034;SDS011;71599;49.892;18.914;2023-07-22T14:41:24;3.83;;;3.08;;
82034;SDS011;71599;49.892;18.914;2023-07-22T14:46:26;2.97;;;2.50;;
82034;SDS011;71599;49.892;18.914;2023-07-22T14:51:27;2.35;;;2.15;;
82034;SDS011;71599;49.892;18.914;2023-07-22T14:56:28;2.83;;;2.55;;
82034;SDS011;71599;49.892;18.914;2023-07-22T15:01:37;3.53;;;2.25;;
82034;SDS011;71599;49.892;18.914;2023-07-22T15:06:38;2.55;;;2.08;;
82034;SDS011;71599;49.892;18.914;2023-07-22T15:11:39;2.63;;;2.13;;
82034;SDS011;71599;49.892;18.914;2023-07-22T15:16:42;4.32;;;2.40;;
82034;SDS011;71599;49.892;18.914;2023-07-22T15:21:43;3.17;;;2.40;;
82034;SDS011;71599;49.892;18.914;2023-07-22T15:26:43;4.53;;;2.10;;
82034;SDS011;71599;49.892;18.914;2023-07-22T15:31:46;2.10;;;1.73;;
82034;SDS011;71599;49.892;18.914;2023-07-22T15:36:47;4.05;;;2.08;;
82034;SDS011;71599;49.892;18.914;2023-07-22T15:41:48;3.83;;;2.55;;
82034;SDS011;71599;49.892;18.914;2023-07-22T15:46:50;3.25;;;2.50;;
82034;SDS011;71599;49.892;18.914;2023-07-22T15:51:51;3.28;;;2.28;;
82034;SDS011;71599;49.892;18.914;2023-07-22T15:56:52;3.50;;;2.35;;
82034;SDS011;71599;49.892;18.914;2023-07-22T16:01:55;6.43;;;2.53;;
82034;SDS011;71599;49.892;18.914;2023-07-22T16:06:56;2.97;;;2.20;;
82034;SDS011;71599;49.892;18.914;2023-07-22T16:11:57;3.55;;;2.63;;
82034;SDS011;71599;49.892;18.914;2023-07-22T16:16:59;3.08;;;2.13;;
82034;SDS011;71599;49.892;18.914;2023-07-22T16:22:00;4.10;;;2.60;;
82034;SDS011;71599;49.892;18.914;2023-07-22T16:27:01;4.25;;;3.20;;
82034;SDS011;71599;49.892;18.914;2023-07-22T16:32:04;3.42;;;2.60;;
82034;SDS011;71599;49.892;18.914;2023-07-22T16:37:06;2.63;;;2.40;;
82034;SDS011;71599;49.892;18.914;2023-07-22T16:42:07;2.83;;;2.30;;
82034;SDS011;71599;49.892;18.914;2023-07-22T16:47:10;3.10;;;2.30;;
82034;SDS011;71599;49.892;18.914;2023-07-22T16:52:11;3.60;;;3.17;;
82034;SDS011;71599;49.892;18.914;2023-07-22T16:57:12;2.97;;;2.45;;
82034;SDS011;71599;49.892;18.914;2023-07-22T17:02:15;3.60;;;3.00;;
82034;SDS011;71599;49.892;18.914;2023-07-22T17:07:15;3.28;;;2.85;;
82034;SDS011;71599;49.892;18.914;2023-07-22T17:12:16;5.47;;;2.67;;
82034;SDS011;71599;49.892;18.914;2023-07-22T17:17:19;3.25;;;2.33;;
82034;SDS011;71599;49.892;18.914;2023-07-22T17:22:20;5.63;;;2.70;;
82034;SDS011;71599;49.892;18.914;2023-07-22T17:27:21;3.03;;;2.47;;
82034;SDS011;71599;49.892;18.914;2023-07-22T17:32:23;2.53;;;2.33;;
82034;SDS011;71599;49.892;18.914;2023-07-22T17:37:24;3.13;;;2.40;;
82034;SDS011;71599;49.892;18.914;2023-07-22T17:42:25;2.92;;;2.20;;
82034;SDS011;71599;49.892;18.914;2023-07-22T17:47:27;5.18;;;2.47;;
82034;SDS011;71599;49.892;18.914;2023-07-22T17:52:28;4.78;;;3.03;;
82034;SDS011;71599;49.892;18.914;2023-07-22T17:57:29;4.55;;;3.28;;
82034;SDS011;71599;49.892;18.914;2023-07-22T18:02:31;4.63;;;2.90;;
82034;SDS011;71599;49.892;18.914;2023-07-22T18:07:33;3.00;;;2.72;;
82034;SDS011;71599;49.892;18.914;2023-07-22T18:12:34;4.70;;;3.00;;
82034;SDS011;71599;49.892;18.914;2023-07-22T18:17:37;4.53;;;2.92;;
82034;SDS011;71599;49.892;18.914;2023-07-22T18:22:40;4.80;;;2.63;;
82034;SDS011;71599;49.892;18.914;2023-07-22T18:27:41;4.38;;;3.00;;
82034;SDS011;71599;49.892;18.914;2023-07-22T18:32:43;3.47;;;3.17;;
82034;SDS011;71599;49.892;18.914;2023-07-22T18:37:44;3.38;;;3.08;;
82034;SDS011;71599;49.892;18.914;2023-07-22T18:42:45;4.93;;;3.78;;
82034;SDS011;71599;49.892;18.914;2023-07-22T18:47:48;4.78;;;3.40;;
82034;SDS011;71599;49.892;18.914;2023-07-22T18:52:48;5.60;;;3.80;;
82034;SDS011;71599;49.892;18.914;2023-07-22T18:57:50;4.93;;;3.92;;
82034;SDS011;71599;49.892;18.914;2023-07-22T19:02:52;4.70;;;4.10;;
82034;SDS011;71599;49.892;18.914;2023-07-22T19:07:54;5.90;;;4.75;;
82034;SDS011;71599;49.892;18.914;2023-07-22T19:12:57;5.75;;;3.90;;
82034;SDS011;71599;49.892;18.914;2023-07-22T19:18:00;4.93;;;4.05;;
82034;SDS011;71599;49.892;18.914;2023-07-22T19:23:02;3.88;;;2.95;;
82034;SDS011;71599;49.892;18.914;2023-07-22T19:28:03;5.97;;;3.55;;
82034;SDS011;71599;49.892;18.914;2023-07-22T19:33:06;5.38;;;3.63;;
82034;SDS011;71599;49.892;18.914;2023-07-22T19:38:07;4.93;;;4.15;;
82034;SDS011;71599;49.892;18.914;2023-07-22T19:43:08;7.88;;;5.30;;
82034;SDS011;71599;49.892;18.914;2023-07-22T19:48:10;5.78;;;3.65;;
82034;SDS011;71599;49.892;18.914;2023-07-22T19:53:11;5.60;;;4.00;;
82034;SDS011;71599;49.892;18.914;2023-07-22T19:58:12;4.15;;;3.65;;
82034;SDS011;71599;49.892;18.914;2023-07-22T20:03:15;5.85;;;4.00;;
82034;SDS011;71599;49.892;18.914;2023-07-22T20:08:16;4.95;;;4.40;;
82034;SDS011;71599;49.892;18.914;2023-07-22T20:13:17;4.63;;;4.07;;
82034;SDS011;71599;49.892;18.914;2023-07-22T20:18:19;5.28;;;4.50;;
82034;SDS011;71599;49.892;18.914;2023-07-22T20:23:20;7.25;;;5.05;;
82034;SDS011;71599;49.892;18.914;2023-07-22T20:28:21;8.23;;;6.55;;
82034;SDS011;71599;49.892;18.914;2023-07-22T20:33:23;9.98;;;7.65;;
82034;SDS011;71599;49.892;18.914;2023-07-22T20:38:24;14.05;;;11.02;;
82034;SDS011;71599;49.892;18.914;2023-07-22T20:43:25;15.18;;;11.85;;
82034;SDS011;71599;49.892;18.914;2023-07-22T20:48:28;14.68;;;10.40;;
82034;SDS011;71599;49.892;18.914;2023-07-22T20:53:29;11.80;;;8.48;;
82034;SDS011;71599;49.892;18.914;2023-07-22T20:58:29;12.20;;;8.02;;
82034;SDS011;71599;49.892;18.914;2023-07-22T21:03:32;10.68;;;8.27;;
82034;SDS011;71599;49.892;18.914;2023-07-22T21:08:33;14.20;;;10.38;;
82034;SDS011;71599;49.892;18.914;2023-07-22T21:13:34;14.93;;;10.27;;
82034;SDS011;71599;49.892;18.914;2023-07-22T21:18:36;14.45;;;9.50;;
82034;SDS011;71599;49.892;18.914;2023-07-22T21:23:37;15.25;;;9.85;;
82034;SDS011;71599;49.892;18.914;2023-07-22T21:28:38;11.40;;;9.23;;
82034;SDS011;71599;49.892;18.914;2023-07-22T21:33:40;13.13;;;9.40;;
82034;SDS011;71599;49.892;18.914;2023-07-22T21:38:41;13.45;;;10.32;;
82034;SDS011;71599;49.892;18.914;2023-07-22T21:43:42;12.25;;;9.77;;
82034;SDS011;71599;49.892;18.914;2023-07-22T21:48:44;14.23;;;10.50;;
82034;SDS011;71599;49.892;18.914;2023-07-22T21:53:45;17.63;;;11.73;;
82034;SDS011;71599;49.892;18.914;2023-07-22T21:58:46;14.52;;;9.88;;
82034;SDS011;71599;49.892;18.914;2023-07-22T22:03:49;17.73;;;10.55;;
82034;SDS011;71599;49.892;18.914;2023-07-22T22:08:49;17.17;;;10.20;;
82034;SDS011;71599;49.892;18.914;2023-07-22T22:13:51;16.50;;;11.48;;
82034;SDS011;71599;49.892;18.914;2023-07-22T22:18:54;13.38;;;9.63;;
82034;SDS011;71599;49.892;18.914;2023-07-22T22:23:55;14.15;;;10.32;;
82034;SDS011;71599;49.892;18.914;2023-07-22T22:28:56;14.27;;;9.07;;
82034;SDS011;71599;49.892;18.914;2023-07-22T22:33:58;14.40;;;10.18;;
82034;SDS011;71599;49.892;18.914;2023-07-22T22:38:59;15.32;;;9.63;;
82034;SDS011;71599;49.892;18.914;2023-07-22T22:44:00;10.68;;;8.50;;
82034;SDS011;71599;49.892;18.914;2023-07-22T22:49:02;13.15;;;9.02;;
82034;SDS011;71599;49.892;18.914;2023-07-22T22:54:03;9.60;;;8.15;;
82034;SDS011;71599;49.892;18.914;2023-07-22T22:59:04;12.25;;;9.43;;
82034;SDS011;71599;49.892;18.914;2023-07-22T23:04:07;15.52;;;11.07;;
82034;SDS011;71599;49.892;18.914;2023-07-22T23:09:08;16.02;;;10.13;;
82034;SDS011;71599;49.892;18.914;2023-07-22T23:14:09;12.88;;;8.90;;
82034;SDS011;71599;49.892;18.914;2023-07-22T23:19:11;13.70;;;9.30;;
82034;SDS011;71599;49.892;18.914;2023-07-22T23:24:12;13.98;;;9.60;;
82034;SDS011;71599;49.892;18.914;2023-07-22T23:29:13;10.52;;;7.68;;
82034;SDS011;71599;49.892;18.914;2023-07-22T23:34:15;17.08;;;9.13;;
82034;SDS011;71599;49.892;18.914;2023-07-22T23:39:16;12.18;;;8.90;;
82034;SDS011;71599;49.892;18.914;2023-07-22T23:44:17;10.80;;;8.32;;
82034;SDS011;71599;49.892;18.914;2023-07-22T23:49:19;11.85;;;8.93;;
82034;SDS011;71599;49.892;18.914;2023-07-22T23:54:20;12.10;;;8.65;;
82034;SDS011;71599;49.892;18.914;2023-07-22T23:59:21;11.88;;;9.15;;
